createdAt,value
2017-09-16T00:00:51.769Z,0
2017-09-16T00:01:51.358Z,0
2017-09-16T00:02:51.382Z,0
2017-09-16T00:03:51.845Z,0
2017-09-16T00:04:52.154Z,0
2017-09-16T00:05:51.881Z,0
2017-09-16T00:06:51.873Z,0
2017-09-16T00:07:52.342Z,0
2017-09-16T00:08:52.323Z,0
2017-09-16T00:09:51.685Z,0
2017-09-16T00:10:51.683Z,0
2017-09-16T00:11:52.001Z,0
2017-09-16T00:12:51.697Z,0
2017-09-16T00:13:52.327Z,0
2017-09-16T00:14:52.444Z,0
2017-09-16T00:15:52.142Z,0
2017-09-16T00:16:52.467Z,0
2017-09-16T00:17:52.148Z,0
2017-09-16T00:18:52.145Z,0
2017-09-16T00:19:52.147Z,0
2017-09-16T00:20:52.156Z,0
2017-09-16T00:21:52.154Z,0
2017-09-16T00:22:52.150Z,0
2017-09-16T00:23:52.187Z,0
2017-09-16T00:24:52.505Z,0
2017-09-16T00:25:51.893Z,0
2017-09-16T00:26:51.584Z,0
2017-09-16T00:27:52.222Z,0
2017-09-16T00:28:52.908Z,0
2017-09-16T00:29:52.222Z,0
2017-09-16T00:30:52.656Z,0
2017-09-16T00:31:52.654Z,0
2017-09-16T00:32:52.264Z,0
2017-09-16T00:33:52.652Z,0
2017-09-16T00:34:52.294Z,0
2017-09-16T00:35:52.309Z,0
2017-09-16T00:36:52.017Z,0
2017-09-16T00:37:52.350Z,0
2017-09-16T00:38:53.039Z,0
2017-09-16T00:39:52.383Z,0
2017-09-16T00:40:52.405Z,0
2017-09-16T00:41:52.423Z,0
2017-09-16T00:42:52.438Z,0
2017-09-16T00:43:53.096Z,0
2017-09-16T00:44:52.158Z,0
2017-09-16T00:45:52.819Z,0
2017-09-16T00:46:52.632Z,0
2017-09-16T00:47:52.655Z,0
2017-09-16T00:48:52.637Z,0
2017-09-16T00:49:51.919Z,0
2017-09-16T00:51:25.210Z,0
2017-09-16T00:51:51.957Z,0
2017-09-16T00:52:52.659Z,0
2017-09-16T00:53:53.287Z,0
2017-09-16T00:54:52.331Z,0
2017-09-16T00:55:52.792Z,0
2017-09-16T00:56:52.797Z,0
2017-09-16T00:57:52.398Z,0
2017-09-16T00:59:05.798Z,0
2017-09-16T00:59:52.821Z,0
2017-09-16T01:00:52.829Z,0
2017-09-16T01:01:53.238Z,0
2017-09-16T01:02:53.417Z,0
2017-09-16T01:03:53.278Z,0
2017-09-16T01:04:52.636Z,0
2017-09-16T01:05:52.642Z,0
2017-09-16T01:06:53.419Z,0
2017-09-16T01:07:53.872Z,0
2017-09-16T01:08:53.860Z,0
2017-09-16T01:09:53.111Z,0
2017-09-16T01:10:53.472Z,0
2017-09-16T01:11:53.214Z,0
2017-09-16T01:12:52.796Z,0
2017-09-16T01:13:52.860Z,0
2017-09-16T01:14:52.799Z,0
2017-09-16T01:15:53.430Z,0
2017-09-16T01:16:53.573Z,0
2017-09-16T01:17:53.572Z,0
2017-09-16T01:18:52.863Z,0
2017-09-16T01:19:53.880Z,0
2017-09-16T01:20:53.184Z,0
2017-09-16T01:21:52.875Z,0
2017-09-16T01:22:53.603Z,0
2017-09-16T01:23:53.602Z,0
2017-09-16T01:24:53.911Z,0
2017-09-16T01:25:53.227Z,0
2017-09-16T01:26:52.975Z,0
2017-09-16T01:27:53.577Z,0
2017-09-16T01:28:53.599Z,0
2017-09-16T01:29:53.087Z,0
2017-09-16T01:30:52.990Z,0
2017-09-16T01:31:53.031Z,0
2017-09-16T01:32:54.095Z,0
2017-09-16T01:33:53.367Z,0
2017-09-16T01:34:53.387Z,0
2017-09-16T01:35:53.775Z,0
2017-09-16T01:36:53.454Z,0
2017-09-16T01:37:54.095Z,0
2017-09-16T01:38:53.784Z,0
2017-09-16T01:39:53.900Z,0
2017-09-16T01:40:53.931Z,0
2017-09-16T01:41:53.832Z,0
2017-09-16T01:42:53.848Z,0
2017-09-16T01:43:52.909Z,0
2017-09-16T01:44:53.883Z,0
2017-09-16T01:45:53.905Z,0
2017-09-16T01:46:53.602Z,0
2017-09-16T01:47:53.301Z,0
2017-09-16T01:48:53.630Z,0
2017-09-16T01:49:53.005Z,0
2017-09-16T01:50:53.350Z,0
2017-09-16T01:51:53.897Z,0
2017-09-16T01:52:54.035Z,0
2017-09-16T01:53:54.057Z,0
2017-09-16T01:54:54.068Z,0
2017-09-16T01:55:54.417Z,0
2017-09-16T01:56:54.428Z,0
2017-09-16T01:57:53.793Z,0
2017-09-16T01:58:54.137Z,0
2017-09-16T01:59:53.188Z,0
2017-09-16T02:00:53.939Z,0
2017-09-16T02:01:55.015Z,0
2017-09-16T02:02:54.631Z,0
2017-09-16T02:03:53.908Z,0
2017-09-16T02:04:53.920Z,0
2017-09-16T02:05:54.277Z,0
2017-09-16T02:06:53.951Z,0
2017-09-16T02:07:53.977Z,0
2017-09-16T02:08:53.993Z,0
2017-09-16T02:09:54.007Z,0
2017-09-16T02:10:54.025Z,0
2017-09-16T02:11:54.063Z,0
2017-09-16T02:12:53.744Z,0
2017-09-16T02:13:54.726Z,0
2017-09-16T02:14:53.902Z,0
2017-09-16T02:15:53.469Z,0
2017-09-16T02:16:54.226Z,0
2017-09-16T02:17:54.245Z,0
2017-09-16T02:18:54.685Z,0
2017-09-16T02:19:54.506Z,0
2017-09-16T02:20:54.214Z,0
2017-09-16T02:21:54.272Z,0
2017-09-16T02:22:54.560Z,0
2017-09-16T02:23:54.107Z,0
2017-09-16T02:24:54.403Z,0
2017-09-16T02:25:54.059Z,0
2017-09-16T02:26:53.987Z,0
2017-09-16T02:27:54.330Z,0
2017-09-16T02:28:54.585Z,0
2017-09-16T02:29:54.369Z,0
2017-09-16T02:30:54.751Z,0
2017-09-16T02:31:54.073Z,0
2017-09-16T02:32:54.417Z,0
2017-09-16T02:33:54.150Z,0
2017-09-16T02:34:55.109Z,0
2017-09-16T02:35:54.568Z,0
2017-09-16T02:36:54.886Z,0
2017-09-16T02:37:55.248Z,0
2017-09-16T02:38:55.204Z,0
2017-09-16T02:39:54.890Z,0
2017-09-16T02:40:54.681Z,0
2017-09-16T02:41:54.580Z,0
2017-09-16T02:42:54.271Z,0
2017-09-16T02:43:54.798Z,0
2017-09-16T02:44:54.958Z,0
2017-09-16T02:45:55.301Z,0
2017-09-16T02:46:54.989Z,0
2017-09-16T02:47:55.007Z,0
2017-09-16T02:48:55.341Z,0
2017-09-16T02:49:55.375Z,0
2017-09-16T02:50:55.060Z,0
2017-09-16T02:51:54.758Z,0
2017-09-16T02:52:55.086Z,0
2017-09-16T02:53:55.786Z,0
2017-09-16T02:54:54.847Z,0
2017-09-16T02:55:54.549Z,0
2017-09-16T02:56:54.841Z,0
2017-09-16T02:57:54.538Z,0
2017-09-16T02:58:55.576Z,0
2017-09-16T02:59:54.568Z,0
2017-09-16T03:00:55.582Z,0
2017-09-16T03:01:54.929Z,0
2017-09-16T03:02:55.267Z,0
2017-09-16T03:03:55.619Z,0
2017-09-16T03:04:54.980Z,0
2017-09-16T03:05:55.328Z,0
2017-09-16T03:06:55.983Z,0
2017-09-16T03:07:55.402Z,0
2017-09-16T03:08:55.378Z,0
2017-09-16T03:09:55.070Z,0
2017-09-16T03:10:55.091Z,0
2017-09-16T03:11:55.749Z,0
2017-09-16T03:12:55.446Z,0
2017-09-16T03:13:55.482Z,0
2017-09-16T03:14:55.159Z,0
2017-09-16T03:15:56.059Z,0
2017-09-16T03:16:55.339Z,0
2017-09-16T03:17:55.108Z,0
2017-09-16T03:18:55.588Z,0
2017-09-16T03:19:55.241Z,0
2017-09-16T03:20:55.906Z,0
2017-09-16T03:21:55.300Z,0
2017-09-16T03:22:55.989Z,0
2017-09-16T03:23:55.632Z,0
2017-09-16T03:24:55.649Z,0
2017-09-16T03:25:54.914Z,0
2017-09-16T03:26:55.367Z,0
2017-09-16T03:27:56.031Z,0
2017-09-16T03:28:55.857Z,0
2017-09-16T03:29:55.528Z,0
2017-09-16T03:30:56.160Z,0
2017-09-16T03:31:55.860Z,0
2017-09-16T03:32:55.257Z,0
2017-09-16T03:33:55.810Z,0
2017-09-16T03:34:55.179Z,0
2017-09-16T03:35:55.898Z,0
2017-09-16T03:36:55.873Z,0
2017-09-16T03:37:55.752Z,0
2017-09-16T03:38:55.931Z,0
2017-09-16T03:39:55.753Z,0
2017-09-16T03:40:55.940Z,0
2017-09-16T03:41:56.070Z,0
2017-09-16T03:42:55.324Z,0
2017-09-16T03:43:55.992Z,0
2017-09-16T03:44:56.005Z,0
2017-09-16T03:45:55.693Z,0
2017-09-16T03:46:56.043Z,0
2017-09-16T03:47:55.732Z,0
2017-09-16T03:48:55.423Z,0
2017-09-16T03:49:55.786Z,0
2017-09-16T03:50:55.783Z,0
2017-09-16T03:51:56.123Z,0
2017-09-16T03:52:55.813Z,0
2017-09-16T03:53:56.481Z,0
2017-09-16T03:54:55.856Z,0
2017-09-16T03:55:55.594Z,0
2017-09-16T03:56:56.529Z,0
2017-09-16T03:57:56.245Z,0
2017-09-16T03:58:55.921Z,0
2017-09-16T03:59:55.944Z,0
2017-09-16T04:00:56.280Z,0
2017-09-16T04:01:55.659Z,0
2017-09-16T04:02:55.995Z,0
2017-09-16T04:03:56.660Z,0
2017-09-16T04:04:56.163Z,0
2017-09-16T04:05:56.364Z,0
2017-09-16T04:06:56.395Z,0
2017-09-16T04:07:56.498Z,0
2017-09-16T04:08:56.500Z,0
2017-09-16T04:09:56.119Z,0
2017-09-16T04:10:56.366Z,0
2017-09-16T04:11:56.365Z,0
2017-09-16T04:12:56.169Z,0
2017-09-16T04:13:56.176Z,0
2017-09-16T04:14:56.202Z,0
2017-09-16T04:15:56.327Z,0
2017-09-16T04:16:56.231Z,0
2017-09-16T04:17:56.251Z,0
2017-09-16T04:18:56.595Z,0
2017-09-16T04:19:56.641Z,0
2017-09-16T04:20:55.984Z,0
2017-09-16T04:21:56.638Z,0
2017-09-16T04:22:56.344Z,0
2017-09-16T04:23:56.034Z,0
2017-09-16T04:24:56.378Z,0
2017-09-16T04:25:56.833Z,0
2017-09-16T04:26:56.410Z,0
2017-09-16T04:27:56.419Z,0
2017-09-16T04:28:56.763Z,0
2017-09-16T04:29:55.817Z,0
2017-09-16T04:30:56.040Z,0
2017-09-16T04:31:57.135Z,0
2017-09-16T04:32:56.830Z,0
2017-09-16T04:33:56.531Z,0
2017-09-16T04:34:56.872Z,0
2017-09-16T04:35:57.201Z,0
2017-09-16T04:36:56.905Z,0
2017-09-16T04:37:56.594Z,0
2017-09-16T04:38:56.716Z,0
2017-09-16T04:39:56.637Z,0
2017-09-16T04:40:56.341Z,0
2017-09-16T04:41:56.807Z,0
2017-09-16T04:42:57.128Z,0
2017-09-16T04:43:57.372Z,0
2017-09-16T04:44:57.341Z,0
2017-09-16T04:45:56.782Z,0
2017-09-16T04:46:56.529Z,0
2017-09-16T04:47:57.122Z,0
2017-09-16T04:48:57.130Z,0
2017-09-16T04:49:56.852Z,0
2017-09-16T04:50:57.147Z,0
2017-09-16T04:51:56.951Z,0
2017-09-16T04:52:57.180Z,0
2017-09-16T04:53:56.879Z,0
2017-09-16T04:54:57.539Z,0
2017-09-16T04:55:57.232Z,0
2017-09-16T04:56:56.933Z,0
2017-09-16T04:57:56.623Z,0
2017-09-16T04:58:56.968Z,0
2017-09-16T04:59:56.988Z,0
2017-09-16T05:00:56.997Z,0
2017-09-16T05:01:57.688Z,0
2017-09-16T05:02:57.052Z,0
2017-09-16T05:03:57.050Z,0
2017-09-16T05:04:57.201Z,0
2017-09-16T05:05:57.175Z,0
2017-09-16T05:06:57.521Z,0
2017-09-16T05:07:57.521Z,0
2017-09-16T05:08:57.546Z,0
2017-09-16T05:09:56.738Z,0
2017-09-16T05:10:57.173Z,0
2017-09-16T05:11:57.514Z,0
2017-09-16T05:12:56.876Z,0
2017-09-16T05:13:57.218Z,0
2017-09-16T05:14:56.913Z,0
2017-09-16T05:15:57.344Z,0
2017-09-16T05:16:57.271Z,0
2017-09-16T05:17:57.689Z,0
2017-09-16T05:18:57.368Z,0
2017-09-16T05:19:56.995Z,0
2017-09-16T05:20:57.015Z,0
2017-09-16T05:21:56.710Z,0
2017-09-16T05:22:57.175Z,0
2017-09-16T05:23:58.033Z,0
2017-09-16T05:24:57.405Z,0
2017-09-16T05:25:57.972Z,0
2017-09-16T05:26:58.387Z,0
2017-09-16T05:27:57.665Z,0
2017-09-16T05:28:57.987Z,0
2017-09-16T05:29:57.029Z,0
2017-09-16T05:30:57.999Z,0
2017-09-16T05:31:57.668Z,0
2017-09-16T05:32:57.977Z,0
2017-09-16T05:33:57.991Z,0
2017-09-16T05:34:57.994Z,0
2017-09-16T05:35:57.602Z,0
2017-09-16T05:36:57.287Z,0
2017-09-16T05:37:57.676Z,0
2017-09-16T05:38:57.326Z,0
2017-09-16T05:39:57.020Z,0
2017-09-16T05:40:57.033Z,0
2017-09-16T05:41:57.699Z,0
2017-09-16T05:42:58.046Z,0
2017-09-16T05:43:57.425Z,0
2017-09-16T05:44:57.859Z,0
2017-09-16T05:45:57.766Z,0
2017-09-16T05:46:57.781Z,0
2017-09-16T05:47:57.606Z,0
2017-09-16T05:48:58.487Z,0
2017-09-16T05:49:57.867Z,0
2017-09-16T05:50:58.178Z,0
2017-09-16T05:51:58.230Z,0
2017-09-16T05:52:58.218Z,0
2017-09-16T05:53:57.899Z,0
2017-09-16T05:54:58.263Z,0
2017-09-16T05:55:58.259Z,0
2017-09-16T05:56:58.036Z,0
2017-09-16T05:57:57.777Z,0
2017-09-16T05:58:58.323Z,0
2017-09-16T05:59:57.874Z,5
2017-09-16T06:00:58.669Z,5
2017-09-16T06:01:58.682Z,5
2017-09-16T06:02:58.061Z,5
2017-09-16T06:03:58.070Z,5
2017-09-16T06:04:58.730Z,5
2017-09-16T06:05:58.432Z,5
2017-09-16T06:06:57.570Z,5
2017-09-16T06:07:57.500Z,5
2017-09-16T06:08:58.256Z,5
2017-09-16T06:09:58.503Z,5
2017-09-16T06:10:58.628Z,5
2017-09-16T06:11:57.983Z,5
2017-09-16T06:12:58.650Z,5
2017-09-16T06:13:58.672Z,5
2017-09-16T06:14:58.340Z,5
2017-09-16T06:15:58.369Z,5
2017-09-16T06:16:58.699Z,5
2017-09-16T06:17:58.634Z,5
2017-09-16T06:18:58.326Z,5
2017-09-16T06:19:58.997Z,5
2017-09-16T06:20:58.359Z,5
2017-09-16T06:21:58.533Z,5
2017-09-16T06:22:59.043Z,5
2017-09-16T06:23:58.532Z,5
2017-09-16T06:24:58.529Z,5
2017-09-16T06:25:58.454Z,5
2017-09-16T06:26:58.828Z,5
2017-09-16T06:27:59.128Z,5
2017-09-16T06:28:58.575Z,5
2017-09-16T06:29:58.839Z,5
2017-09-16T06:30:58.534Z,5
2017-09-16T06:31:58.872Z,5
2017-09-16T06:32:58.598Z,5
2017-09-16T06:33:59.230Z,5
2017-09-16T06:34:58.925Z,5
2017-09-16T06:35:58.961Z,5
2017-09-16T06:36:58.968Z,5
2017-09-16T06:37:59.120Z,5
2017-09-16T06:38:58.997Z,5
2017-09-16T06:39:58.687Z,5
2017-09-16T06:40:58.709Z,5
2017-09-16T06:41:58.746Z,5
2017-09-16T06:42:58.737Z,5
2017-09-16T06:43:58.758Z,5
2017-09-16T06:44:58.508Z,5
2017-09-16T06:45:58.486Z,5
2017-09-16T06:46:59.231Z,5
2017-09-16T06:47:59.482Z,5
2017-09-16T06:48:58.531Z,5
2017-09-16T06:49:59.186Z,5
2017-09-16T06:50:58.551Z,5
2017-09-16T06:51:59.214Z,5
2017-09-16T06:52:59.554Z,5
2017-09-16T06:53:58.931Z,5
2017-09-16T06:54:58.629Z,5
2017-09-16T06:55:59.618Z,5
2017-09-16T06:56:59.304Z,5
2017-09-16T06:57:59.640Z,5
2017-09-16T06:58:59.658Z,5
2017-09-16T06:59:59.031Z,5
2017-09-16T07:00:59.056Z,5
2017-09-16T07:01:59.393Z,5
2017-09-16T07:02:59.248Z,5
2017-09-16T07:03:58.783Z,5
2017-09-16T07:04:59.121Z,5
2017-09-16T07:05:59.465Z,5
2017-09-16T07:06:59.533Z,5
2017-09-16T07:07:59.177Z,5
2017-09-16T07:08:59.214Z,5
2017-09-16T07:09:58.892Z,5
2017-09-16T07:10:59.249Z,5
2017-09-16T07:11:59.248Z,5
2017-09-16T07:12:58.738Z,5
2017-09-16T07:13:59.616Z,5
2017-09-16T07:14:59.538Z,5
2017-09-16T07:15:59.563Z,5
2017-09-16T07:16:59.662Z,5
2017-09-16T07:17:59.961Z,5
2017-09-16T07:18:58.721Z,5
2017-09-16T07:19:59.615Z,5
2017-09-16T07:20:59.933Z,5
2017-09-16T07:22:00.258Z,5
2017-09-16T07:23:00.267Z,5
2017-09-16T07:23:59.457Z,5
2017-09-16T07:25:00.221Z,5
2017-09-16T07:25:59.491Z,5
2017-09-16T07:26:59.185Z,5
2017-09-16T07:28:00.181Z,5
2017-09-16T07:28:59.234Z,5
2017-09-16T07:29:59.247Z,5
2017-09-16T07:30:59.798Z,5
2017-09-16T07:31:59.609Z,5
2017-09-16T07:32:59.621Z,5
2017-09-16T07:33:59.842Z,5
2017-09-16T07:34:59.842Z,5
2017-09-16T07:35:59.862Z,5
2017-09-16T07:36:59.051Z,5
2017-09-16T07:37:59.830Z,5
2017-09-16T07:38:59.723Z,5
2017-09-16T07:39:59.560Z,5
2017-09-16T07:40:59.761Z,5
2017-09-16T07:42:00.101Z,5
2017-09-16T07:42:59.153Z,5
2017-09-16T07:43:59.817Z,5
2017-09-16T07:44:59.833Z,5
2017-09-16T07:46:00.182Z,5
2017-09-16T07:47:00.413Z,5
2017-09-16T07:48:00.211Z,5
2017-09-16T07:48:59.921Z,5
2017-09-16T07:50:00.249Z,5
2017-09-16T07:51:00.605Z,5
2017-09-16T07:51:59.730Z,5
2017-09-16T07:53:00.173Z,5
2017-09-16T07:54:00.070Z,5
2017-09-16T07:55:00.069Z,5
2017-09-16T07:56:00.389Z,5
2017-09-16T07:57:00.797Z,5
2017-09-16T07:58:00.076Z,5
2017-09-16T07:58:59.762Z,5
2017-09-16T08:00:00.109Z,5
2017-09-16T08:01:00.468Z,5
2017-09-16T08:02:00.468Z,5
2017-09-16T08:03:00.481Z,5
2017-09-16T08:04:00.187Z,5
2017-09-16T08:05:00.208Z,5
2017-09-16T08:06:00.217Z,5
2017-09-16T08:07:00.882Z,5
2017-09-16T08:08:00.698Z,5
2017-09-16T08:09:00.275Z,5
2017-09-16T08:10:00.288Z,5
2017-09-16T08:11:00.650Z,5
2017-09-16T08:12:00.660Z,5
2017-09-16T08:13:00.526Z,5
2017-09-16T08:14:01.027Z,5
2017-09-16T08:15:00.485Z,5
2017-09-16T08:16:00.953Z,5
2017-09-16T08:17:00.940Z,5
2017-09-16T08:18:01.292Z,5
2017-09-16T08:19:00.534Z,5
2017-09-16T08:20:00.244Z,5
2017-09-16T08:21:00.909Z,5
2017-09-16T08:22:00.278Z,5
2017-09-16T08:23:00.589Z,5
2017-09-16T08:23:59.946Z,5
2017-09-16T08:25:00.890Z,5
2017-09-16T08:26:00.913Z,5
2017-09-16T08:27:00.926Z,5
2017-09-16T08:28:00.751Z,5
2017-09-16T08:29:00.964Z,5
2017-09-16T08:30:00.990Z,5
2017-09-16T08:31:00.039Z,5
2017-09-16T08:32:00.702Z,5
2017-09-16T08:33:01.036Z,5
2017-09-16T08:34:00.746Z,5
2017-09-16T08:35:00.768Z,5
2017-09-16T08:36:00.781Z,5
2017-09-16T08:37:01.445Z,5
2017-09-16T08:38:00.501Z,5
2017-09-16T08:39:01.155Z,5
2017-09-16T08:40:00.966Z,5
2017-09-16T08:41:00.892Z,5
2017-09-16T08:42:00.966Z,5
2017-09-16T08:43:00.914Z,5
2017-09-16T08:44:01.248Z,5
2017-09-16T08:45:01.070Z,5
2017-09-16T08:46:01.378Z,5
2017-09-16T08:47:01.567Z,5
2017-09-16T08:48:01.427Z,5
2017-09-16T08:49:01.036Z,5
2017-09-16T08:50:01.055Z,5
2017-09-16T08:51:01.415Z,5
2017-09-16T08:52:01.727Z,5
2017-09-16T08:53:00.780Z,5
2017-09-16T08:54:01.323Z,5
2017-09-16T08:55:01.146Z,5
2017-09-16T08:56:01.678Z,5
2017-09-16T08:57:01.695Z,5
2017-09-16T08:58:01.056Z,5
2017-09-16T08:59:01.726Z,5
2017-09-16T09:00:01.972Z,5
2017-09-16T09:01:01.905Z,5
2017-09-16T09:02:00.961Z,10
2017-09-16T09:03:01.294Z,10
2017-09-16T09:04:01.642Z,10
2017-09-16T09:05:01.335Z,10
2017-09-16T09:06:01.677Z,10
2017-09-16T09:07:01.124Z,5
2017-09-16T09:08:01.419Z,10
2017-09-16T09:09:01.445Z,10
2017-09-16T09:10:01.441Z,10
2017-09-16T09:11:01.458Z,10
2017-09-16T09:12:01.472Z,10
2017-09-16T09:13:01.508Z,10
2017-09-16T09:14:01.511Z,10
2017-09-16T09:15:01.688Z,10
2017-09-16T09:16:01.549Z,10
2017-09-16T09:17:01.249Z,10
2017-09-16T09:18:02.350Z,10
2017-09-16T09:19:01.288Z,10
2017-09-16T09:20:01.953Z,10
2017-09-16T09:21:02.088Z,10
2017-09-16T09:22:02.412Z,10
2017-09-16T09:23:01.371Z,10
2017-09-16T09:24:01.397Z,10
2017-09-16T09:25:01.727Z,10
2017-09-16T09:26:01.750Z,10
2017-09-16T09:27:01.463Z,10
2017-09-16T09:28:02.115Z,10
2017-09-16T09:29:02.135Z,10
2017-09-16T09:30:02.485Z,10
2017-09-16T09:31:01.853Z,15
2017-09-16T09:32:02.530Z,15
2017-09-16T09:33:02.235Z,15
2017-09-16T09:34:02.237Z,15
2017-09-16T09:35:02.056Z,15
2017-09-16T09:36:02.284Z,15
2017-09-16T09:37:01.994Z,20
2017-09-16T09:38:02.315Z,20
2017-09-16T09:39:02.460Z,25
2017-09-16T09:40:02.045Z,25
2017-09-16T09:41:01.736Z,25
2017-09-16T09:42:02.403Z,30
2017-09-16T09:43:01.450Z,30
2017-09-16T09:44:02.450Z,25
2017-09-16T09:45:02.478Z,25
2017-09-16T09:46:02.506Z,25
2017-09-16T09:47:01.855Z,20
2017-09-16T09:48:01.873Z,20
2017-09-16T09:49:02.222Z,20
2017-09-16T09:50:02.365Z,20
2017-09-16T09:51:02.587Z,15
2017-09-16T09:52:02.064Z,15
2017-09-16T09:53:02.625Z,10
2017-09-16T09:54:02.319Z,10
2017-09-16T09:55:02.670Z,10
2017-09-16T09:56:02.364Z,10
2017-09-16T09:57:03.256Z,15
2017-09-16T09:58:02.739Z,15
2017-09-16T09:59:02.517Z,15
2017-09-16T10:00:02.751Z,15
2017-09-16T10:01:02.676Z,15
2017-09-16T10:02:02.181Z,15
2017-09-16T10:03:02.552Z,15
2017-09-16T10:04:02.529Z,15
2017-09-16T10:05:02.874Z,15
2017-09-16T10:06:02.898Z,15
2017-09-16T10:07:02.616Z,15
2017-09-16T10:08:02.957Z,15
2017-09-16T10:09:02.644Z,15
2017-09-16T10:10:02.668Z,15
2017-09-16T10:11:02.152Z,15
2017-09-16T10:12:02.709Z,15
2017-09-16T10:13:02.398Z,15
2017-09-16T10:14:02.744Z,15
2017-09-16T10:15:03.095Z,15
2017-09-16T10:16:02.830Z,15
2017-09-16T10:17:03.532Z,15
2017-09-16T10:18:03.151Z,15
2017-09-16T10:19:02.871Z,15
2017-09-16T10:20:03.287Z,15
2017-09-16T10:21:03.292Z,15
2017-09-16T10:22:03.570Z,20
2017-09-16T10:23:03.026Z,20
2017-09-16T10:24:03.382Z,20
2017-09-16T10:25:02.658Z,20
2017-09-16T10:26:03.351Z,20
2017-09-16T10:27:03.029Z,20
2017-09-16T10:28:03.164Z,20
2017-09-16T10:29:03.431Z,20
2017-09-16T10:30:03.413Z,20
2017-09-16T10:31:03.188Z,20
2017-09-16T10:32:02.818Z,20
2017-09-16T10:33:03.185Z,20
2017-09-16T10:34:03.489Z,15
2017-09-16T10:35:03.844Z,15
2017-09-16T10:36:03.253Z,10
2017-09-16T10:37:03.252Z,15
2017-09-16T10:38:03.577Z,15
2017-09-16T10:39:03.281Z,20
2017-09-16T10:40:03.448Z,20
2017-09-16T10:41:03.427Z,20
2017-09-16T10:42:03.415Z,15
2017-09-16T10:43:03.518Z,20
2017-09-16T10:44:03.899Z,25
2017-09-16T10:45:03.519Z,25
2017-09-16T10:46:03.145Z,25
2017-09-16T10:47:03.772Z,25
2017-09-16T10:48:03.797Z,25
2017-09-16T10:49:03.953Z,30
2017-09-16T10:50:04.249Z,30
2017-09-16T10:51:04.248Z,30
2017-09-16T10:52:03.695Z,35
2017-09-16T10:53:03.985Z,35
2017-09-16T10:54:03.605Z,30
2017-09-16T10:55:04.281Z,25
2017-09-16T10:56:04.288Z,25
2017-09-16T10:57:03.663Z,25
2017-09-16T10:58:04.137Z,25
2017-09-16T10:59:04.145Z,30
2017-09-16T11:00:03.120Z,30
2017-09-16T11:01:03.762Z,25
2017-09-16T11:02:04.144Z,25
2017-09-16T11:03:03.484Z,20
2017-09-16T11:04:04.149Z,25
2017-09-16T11:05:04.261Z,25
2017-09-16T11:06:03.989Z,25
2017-09-16T11:07:03.986Z,25
2017-09-16T11:08:03.918Z,25
2017-09-16T11:09:03.986Z,25
2017-09-16T11:10:04.609Z,25
2017-09-16T11:11:04.312Z,30
2017-09-16T11:12:04.335Z,25
2017-09-16T11:13:04.050Z,25
2017-09-16T11:14:04.372Z,25
2017-09-16T11:15:04.390Z,25
2017-09-16T11:16:04.160Z,25
2017-09-16T11:17:04.190Z,25
2017-09-16T11:18:04.184Z,20
2017-09-16T11:19:04.195Z,20
2017-09-16T11:20:03.867Z,30
2017-09-16T11:21:03.890Z,25
2017-09-16T11:22:04.567Z,30
2017-09-16T11:23:03.932Z,30
2017-09-16T11:24:04.284Z,35
2017-09-16T11:25:04.067Z,40
2017-09-16T11:26:04.316Z,35
2017-09-16T11:27:05.027Z,30
2017-09-16T11:28:04.370Z,25
2017-09-16T11:29:04.392Z,35
2017-09-16T11:30:04.406Z,35
2017-09-16T11:31:04.759Z,30
2017-09-16T11:32:04.201Z,25
2017-09-16T11:33:04.484Z,30
2017-09-16T11:34:04.186Z,35
2017-09-16T11:35:05.227Z,25
2017-09-16T11:36:05.203Z,25
2017-09-16T11:37:04.571Z,30
2017-09-16T11:38:04.919Z,35
2017-09-16T11:39:05.052Z,35
2017-09-16T11:40:05.051Z,35
2017-09-16T11:41:05.306Z,40
2017-09-16T11:42:04.700Z,40
2017-09-16T11:43:04.711Z,40
2017-09-16T11:44:05.590Z,40
2017-09-16T11:45:04.817Z,35
2017-09-16T11:46:05.111Z,30
2017-09-16T11:47:05.247Z,35
2017-09-16T11:48:05.264Z,35
2017-09-16T11:49:05.170Z,35
2017-09-16T11:50:04.983Z,40
2017-09-16T11:51:05.554Z,40
2017-09-16T11:52:05.274Z,40
2017-09-16T11:53:04.951Z,45
2017-09-16T11:54:04.320Z,45
2017-09-16T11:55:05.146Z,45
2017-09-16T11:56:05.148Z,40
2017-09-16T11:57:05.146Z,40
2017-09-16T11:58:05.291Z,35
2017-09-16T11:59:04.433Z,35
2017-09-16T12:00:05.750Z,30
2017-09-16T12:01:04.805Z,30
2017-09-16T12:02:05.240Z,25
2017-09-16T12:03:04.850Z,25
2017-09-16T12:04:05.224Z,25
2017-09-16T12:05:04.898Z,25
2017-09-16T12:06:05.682Z,25
2017-09-16T12:07:05.597Z,25
2017-09-16T12:08:05.322Z,30
2017-09-16T12:09:05.313Z,30
2017-09-16T12:10:05.356Z,30
2017-09-16T12:11:05.362Z,30
2017-09-16T12:13:06.061Z,50
2017-09-16T12:14:05.554Z,50
2017-09-16T12:15:05.468Z,50
2017-09-16T12:16:05.916Z,55
2017-09-16T12:17:05.416Z,55
2017-09-16T12:18:05.539Z,50
2017-09-16T12:19:05.350Z,45
2017-09-16T12:20:05.709Z,40
2017-09-16T12:21:05.606Z,35
2017-09-16T12:22:05.665Z,30
2017-09-16T12:23:06.100Z,25
2017-09-16T12:24:05.823Z,25
2017-09-16T12:25:05.825Z,25
2017-09-16T12:26:05.844Z,20
2017-09-16T12:27:05.756Z,20
2017-09-16T12:28:05.782Z,20
2017-09-16T12:29:06.110Z,20
2017-09-16T12:30:06.460Z,25
2017-09-16T12:31:06.489Z,20
2017-09-16T12:32:06.179Z,25
2017-09-16T12:33:06.201Z,30
2017-09-16T12:34:06.229Z,30
2017-09-16T12:35:06.672Z,35
2017-09-16T12:36:06.939Z,40
2017-09-16T12:37:05.853Z,35
2017-09-16T12:38:07.263Z,35
2017-09-16T12:39:09.689Z,35
2017-09-16T12:40:05.421Z,35
2017-09-16T12:41:06.078Z,40
2017-09-16T12:42:06.777Z,35
2017-09-16T12:43:06.457Z,25
2017-09-16T12:44:06.486Z,15
2017-09-16T12:45:06.503Z,20
2017-09-16T12:46:06.529Z,20
2017-09-16T12:47:06.544Z,20
2017-09-16T12:48:06.968Z,25
2017-09-16T12:49:06.281Z,35
2017-09-16T12:50:06.703Z,40
2017-09-16T12:51:06.968Z,40
2017-09-16T12:52:06.671Z,35
2017-09-16T12:53:06.697Z,25
2017-09-16T12:54:06.712Z,20
2017-09-16T12:55:06.740Z,15
2017-09-16T12:56:06.495Z,15
2017-09-16T12:57:06.867Z,15
2017-09-16T12:58:06.523Z,15
2017-09-16T12:59:06.864Z,15
2017-09-16T13:00:06.863Z,20
2017-09-16T13:01:07.318Z,25
2017-09-16T13:02:07.331Z,30
2017-09-16T13:03:07.145Z,30
2017-09-16T13:04:06.636Z,35
2017-09-16T13:05:07.208Z,30
2017-09-16T13:06:07.323Z,25
2017-09-16T13:07:06.709Z,25
2017-09-16T13:08:06.876Z,30
2017-09-16T13:09:07.173Z,35
2017-09-16T13:10:06.869Z,40
2017-09-16T13:11:06.485Z,35
2017-09-16T13:12:07.476Z,35
2017-09-16T13:13:07.533Z,40
2017-09-16T13:14:07.199Z,40
2017-09-16T13:15:06.902Z,40
2017-09-16T13:16:07.336Z,35
2017-09-16T13:17:07.593Z,30
2017-09-16T13:18:07.301Z,25
2017-09-16T13:19:07.474Z,25
2017-09-16T13:20:07.676Z,30
2017-09-16T13:21:07.683Z,35
2017-09-16T13:22:07.163Z,40
2017-09-16T13:23:07.415Z,50
2017-09-16T13:24:07.124Z,55
2017-09-16T13:25:07.788Z,55
2017-09-16T13:26:07.171Z,50
2017-09-16T13:27:07.549Z,45
2017-09-16T13:28:07.211Z,45
2017-09-16T13:29:07.243Z,50
2017-09-16T13:30:07.352Z,50
2017-09-16T13:31:07.942Z,45
2017-09-16T13:32:07.317Z,35
2017-09-16T13:33:07.663Z,35
2017-09-16T13:34:07.137Z,35
2017-09-16T13:35:07.716Z,35
2017-09-16T13:36:07.741Z,30
2017-09-16T13:37:07.203Z,25
2017-09-16T13:38:07.201Z,25
2017-09-16T13:39:07.205Z,25
2017-09-16T13:40:08.159Z,25
2017-09-16T13:41:07.864Z,25
2017-09-16T13:42:07.556Z,25
2017-09-16T13:43:07.591Z,20
2017-09-16T13:44:08.027Z,15
2017-09-16T13:45:08.485Z,20
2017-09-16T13:46:07.982Z,20
2017-09-16T13:47:07.799Z,20
2017-09-16T13:48:07.389Z,20
2017-09-16T13:49:07.773Z,15
2017-09-16T13:50:08.112Z,15
2017-09-16T13:51:08.125Z,15
2017-09-16T13:52:08.457Z,15
2017-09-16T13:53:07.862Z,15
2017-09-16T13:54:07.874Z,15
2017-09-16T13:55:07.884Z,15
2017-09-16T13:56:07.919Z,15
2017-09-16T13:57:07.936Z,15
2017-09-16T13:58:08.620Z,10
2017-09-16T13:59:07.669Z,15
2017-09-16T14:00:08.329Z,15
2017-09-16T14:01:08.354Z,20
2017-09-16T14:02:08.464Z,25
2017-09-16T14:03:08.407Z,30
2017-09-16T14:04:07.832Z,30
2017-09-16T14:05:08.456Z,35
2017-09-16T14:06:08.490Z,35
2017-09-16T14:07:08.822Z,30
2017-09-16T14:08:08.234Z,30
2017-09-16T14:09:08.560Z,25
2017-09-16T14:10:08.906Z,25
2017-09-16T14:11:07.960Z,20
2017-09-16T14:12:08.324Z,15
2017-09-16T14:13:08.670Z,15
2017-09-16T14:14:08.058Z,15
2017-09-16T14:15:08.716Z,15
2017-09-16T14:16:08.408Z,15
2017-09-16T14:17:08.427Z,15
2017-09-16T14:18:08.445Z,15
2017-09-16T14:19:08.937Z,15
2017-09-16T14:20:08.282Z,15
2017-09-16T14:21:08.931Z,10
2017-09-16T14:22:08.649Z,10
2017-09-16T14:23:08.270Z,10
2017-09-16T14:24:08.607Z,10
2017-09-16T14:25:09.388Z,10
2017-09-16T14:26:09.383Z,15
2017-09-16T14:27:09.320Z,15
2017-09-16T14:28:08.060Z,15
2017-09-16T14:29:09.367Z,15
2017-09-16T14:30:09.068Z,15
2017-09-16T14:31:08.451Z,15
2017-09-16T14:32:09.442Z,10
2017-09-16T14:33:08.495Z,10
2017-09-16T14:34:09.188Z,10
2017-09-16T14:35:08.658Z,10
2017-09-16T14:36:09.103Z,10